Time;durP1;ratioP1;P1;durP2;ratioP2;P2;SDS_P1;SDS_P2;PMS_P1;PMS_P2;Temp;Humidity;BMP_temperature;BMP_pressure;BME280_temperature;BME280_humidity;BME280_pressure;Samples;Min_cycle;Max_cycle;Signal;HPM_P1;HPM_P2
2021/11/28 00:01:12;;;;;;;;;2.00;2.00;;;;;7.71;74.54;99483.13;5036448;28;45465;-76
2021/11/28 00:03:37;;;;;;;;;5.75;1.00;;;;;7.72;74.50;99487.50;5037724;28;47747;-77
2021/11/28 00:06:06;;;;;;;;;4.50;1.00;;;;;7.67;74.16;99490.16;5047463;28;45385;-79
2021/11/28 00:08:48;;;;;;;;;3.25;2.00;;;;;7.73;74.04;99478.78;5043333;28;45515;-80
2021/11/28 00:13:53;;;;;;;;;4.00;2.00;;;;;7.74;73.97;99505.06;5035786;28;45558;-77
2021/11/28 00:16:19;;;;;;;;;2.00;2.00;;;;;7.71;73.89;99484.00;5035433;28;45247;-77
2021/11/28 00:18:44;;;;;;;;;3.00;3.00;;;;;7.70;73.93;99487.53;5035279;28;45338;-80
2021/11/28 00:21:09;;;;;;;;;3.75;2.00;;;;;7.67;73.99;99492.78;5018310;28;45620;-79
2021/11/28 00:23:35;;;;;;;;;5.50;2.00;;;;;7.65;73.47;99486.63;5017682;28;46808;-76
2021/11/28 00:26:00;;;;;;;;;5.75;2.75;;;;;7.70;73.55;99492.78;5019015;28;45332;-78
2021/11/28 00:28:26;;;;;;;;;2.00;2.00;;;;;7.65;73.45;99491.03;5036044;28;45543;-76
2021/11/28 00:30:51;;;;;;;;;3.00;2.00;;;;;7.61;73.34;99492.75;5036065;28;45567;-77
2021/11/28 00:33:17;;;;;;;;;5.75;2.50;;;;;7.60;73.56;99496.25;5035146;28;47651;-80
2021/11/28 00:35:42;;;;;;;;;8.00;6.00;;;;;7.55;73.30;99488.38;5035502;28;45326;-77
2021/11/28 00:38:08;;;;;;;;;5.00;2.50;;;;;7.58;73.19;99491.03;5034462;28;57306;-76
2021/11/28 00:40:33;;;;;;;;;3.00;3.00;;;;;7.55;73.55;99483.13;5022294;28;53464;-76
2021/11/28 00:42:59;;;;;;;;;2.75;1.00;;;;;7.54;73.48;99486.63;5027751;28;68414;-78
2021/11/28 00:45:24;;;;;;;;;4.50;2.00;;;;;7.55;73.49;99477.00;5023724;28;45477;-79
2021/11/28 00:47:50;;;;;;;;;2.00;1.00;;;;;7.54;73.17;99481.38;5037624;28;45240;-78
2021/11/28 00:52:42;;;;;;;;;1.00;1.00;;;;;7.59;73.44;99484.00;5004621;28;46653;-76
2021/11/28 00:55:08;;;;;;;;;3.50;1.00;;;;;7.59;73.29;99499.78;5021411;28;45389;-77
2021/11/28 00:57:34;;;;;;;;;2.75;1.00;;;;;7.60;72.60;99499.75;5038271;28;45291;-77
2021/11/28 01:00:04;;;;;;;;;1.00;1.00;;;;;7.60;73.35;99493.63;5039112;28;45397;-79
2021/11/28 01:02:30;;;;;;;;;2.25;1.00;;;;;7.64;72.94;99503.28;5037811;28;46520;-76
2021/11/28 01:04:55;;;;;;;;;1.50;1.00;;;;;7.60;72.97;99507.66;5038484;28;55992;-77
2021/11/28 01:07:21;;;;;;;;;1.00;1.00;;;;;7.61;73.06;99511.16;5019841;28;59528;-77
2021/11/28 01:09:46;;;;;;;;;1.00;1.00;;;;;7.60;72.41;99505.03;5038116;28;45456;-77
2021/11/28 01:12:11;;;;;;;;;6.00;3.00;;;;;7.60;72.83;99519.91;5003046;28;46427;-77
2021/11/28 01:14:37;;;;;;;;;5.25;3.00;;;;;7.55;72.89;99508.50;5037555;28;50087;-79
2021/11/28 01:17:02;;;;;;;;;2.75;2.00;;;;;7.58;72.78;99517.28;5020086;28;45492;-77
2021/11/28 01:19:28;;;;;;;;;3.00;3.00;;;;;7.60;72.78;99520.78;5020223;28;45581;-76
2021/11/28 01:21:55;;;;;;;;;4.00;3.00;;;;;7.60;72.60;99515.53;5037761;28;47547;-77
2021/11/28 01:24:21;;;;;;;;;6.00;3.50;;;;;7.65;72.83;99527.81;5036886;28;45484;-79
2021/11/28 01:26:46;;;;;;;;;1.00;1.00;;;;;7.68;72.35;99530.44;5038059;28;45482;-78
2021/11/28 01:29:11;;;;;;;;;3.00;1.25;;;;;7.70;72.50;99533.94;5037054;28;56669;-76
2021/11/28 01:31:37;;;;;;;;;2.00;1.00;;;;;7.72;72.45;99540.94;5037672;28;59038;-80
2021/11/28 01:34:02;;;;;;;;;3.50;1.75;;;;;7.72;72.29;99535.69;5037974;28;45322;-76
2021/11/28 01:36:28;;;;;;;;;16.00;13.50;;;;;7.71;72.39;99539.19;5028758;28;55407;-77
2021/11/28 01:38:53;;;;;;;;;7.50;3.00;;;;;7.74;72.36;99549.72;5037745;28;54189;-80
2021/11/28 01:41:18;;;;;;;;;5.75;3.00;;;;;7.70;72.09;99541.81;5037600;28;62746;-76
2021/11/28 01:43:44;;;;;;;;;1.67;1.00;;;;;7.69;71.74;99551.47;5038111;28;53614;-77
2021/11/28 01:46:10;;;;;;;;;2.33;1.00;;;;;7.68;71.71;99556.72;5037156;28;45451;-77
2021/11/28 01:48:35;;;;;;;;;2.00;1.00;;;;;7.67;71.78;99560.19;5037541;28;45656;-76
2021/11/28 01:51:02;;;;;;;;;7.00;1.75;;;;;7.59;71.54;99552.31;5036241;28;66946;-80
2021/11/28 01:53:28;;;;;;;;;2.00;1.00;;;;;7.65;71.61;99560.19;5026564;28;45560;-80
2021/11/28 01:55:54;;;;;;;;;2.00;2.00;;;;;7.66;71.77;99559.31;5006890;28;45423;-79
2021/11/28 01:58:19;;;;;;;;;1.00;1.00;;;;;7.62;71.65;99560.22;5022192;28;45525;-77
2021/11/28 02:00:50;;;;;;;;;1.67;0.00;;;;;7.62;71.64;99554.97;4999579;28;47313;-76
2021/11/28 02:03:16;;;;;;;;;1.00;1.00;;;;;7.59;71.66;99560.19;5000204;28;45348;-79
2021/11/28 02:05:43;;;;;;;;;2.00;1.00;;;;;7.59;71.75;99562.81;5018050;28;45236;-76
2021/11/28 02:08:09;;;;;;;;;1.67;0.67;;;;;7.57;71.67;99580.34;4999878;28;45414;-75
2021/11/28 02:10:34;;;;;;;;;1.25;1.25;;;;;7.55;71.88;99569.78;5005105;28;46223;-76
2021/11/28 02:12:59;;;;;;;;;2.00;0.33;;;;;7.52;71.95;99571.56;5018282;28;45288;-77
2021/11/28 02:15:25;;;;;;;;;2.00;1.00;;;;;7.57;71.67;99580.34;5017922;28;45370;-79
2021/11/28 02:17:52;;;;;;;;;1.00;1.00;;;;;7.58;71.62;99571.56;4999531;28;60469;-76
2021/11/28 02:20:17;;;;;;;;;1.00;1.00;;;;;7.53;71.54;99560.19;4999680;28;47433;-79
2021/11/28 02:22:43;;;;;;;;;0.00;0.00;;;;;7.54;71.72;99575.94;5021627;28;45501;-77
2021/11/28 02:25:10;;;;;;;;;0.00;0.00;;;;;7.61;71.77;99579.44;5027619;28;45422;-78
2021/11/28 02:27:35;;;;;;;;;3.00;0.00;;;;;7.59;71.61;99582.06;5006871;28;45459;-77
2021/11/28 02:30:01;;;;;;;;;2.00;0.33;;;;;7.54;71.47;99578.56;4999486;28;45318;-76
2021/11/28 02:32:26;;;;;;;;;1.33;1.00;;;;;7.56;71.36;99579.47;5016533;28;62359;-76
2021/11/28 02:34:51;;;;;;;;;2.33;1.00;;;;;7.57;71.31;99583.84;4999800;28;45625;-77
2021/11/28 02:37:17;;;;;;;;;0.00;0.00;;;;;7.56;71.51;99589.06;5018278;28;45520;-76
2021/11/28 02:39:42;;;;;;;;;4.33;0.00;;;;;7.54;71.35;99596.94;4982548;28;66260;-79
2021/11/28 02:42:08;;;;;;;;;2.00;1.00;;;;;7.53;71.42;99587.31;4998891;28;58043;-76
2021/11/28 02:44:33;;;;;;;;;1.00;0.33;;;;;7.49;71.51;99588.16;5017410;28;45184;-78
2021/11/28 02:46:59;;;;;;;;;0.00;0.00;;;;;7.48;71.57;99585.53;5028943;28;45633;-78
2021/11/28 02:49:24;;;;;;;;;0.00;0.00;;;;;7.56;71.54;99604.81;5008097;28;47453;-79
2021/11/28 02:51:50;;;;;;;;;2.00;0.00;;;;;7.56;71.51;99594.31;5016738;28;45484;-79
2021/11/28 02:54:15;;;;;;;;;0.00;0.00;;;;;7.48;71.42;99578.53;5030351;28;60486;-77
2021/11/28 02:56:42;;;;;;;;;0.00;0.00;;;;;7.54;71.53;99598.69;5021760;28;45398;-77
2021/11/28 02:59:07;;;;;;;;;2.00;0.00;;;;;7.54;71.27;99591.69;5017915;28;47288;-76
2021/11/28 03:01:32;;;;;;;;;0.00;0.00;;;;;7.58;71.46;99585.56;5024639;28;57579;-77
2021/11/28 03:03:58;;;;;;;;;0.00;0.00;;;;;7.59;71.24;99602.22;5012464;28;61548;-76
2021/11/28 03:06:23;;;;;;;;;0.00;0.00;;;;;7.56;71.32;99604.81;5021179;28;45526;-77
2021/11/28 03:08:48;;;;;;;;;1.50;0.00;;;;;7.51;71.52;99583.81;5016431;28;65562;-78
2021/11/28 03:11:14;;;;;;;;;2.00;0.75;;;;;7.46;71.42;99585.56;5028808;28;45254;-76
2021/11/28 03:13:44;;;;;;;;;2.00;0.00;;;;;7.49;71.58;99601.31;4999677;28;45257;-78
2021/11/28 03:16:14;;;;;;;;;0.33;0.33;;;;;7.49;71.78;99603.94;5017123;28;45339;-76
2021/11/28 03:18:39;;;;;;;;;0.25;0.25;;;;;7.48;71.43;99594.31;4998984;28;46686;-76
2021/11/28 03:21:09;;;;;;;;;0.00;0.00;;;;;7.51;71.67;99589.06;5016835;28;45532;-76
2021/11/28 03:23:34;;;;;;;;;0.67;0.00;;;;;7.52;71.43;99601.31;5030156;28;45402;-76
2021/11/28 03:26:08;;;;;;;;;0.33;0.00;;;;;7.51;71.37;99601.28;5019387;28;45300;-76
2021/11/28 03:28:33;;;;;;;;;0.00;0.00;;;;;7.47;71.57;99599.56;5016389;28;46723;-78
2021/11/28 03:30:59;;;;;;;;;0.33;0.00;;;;;7.53;71.48;99604.81;5000027;28;45624;-76
2021/11/28 03:33:24;;;;;;;;;1.00;0.00;;;;;7.55;71.32;99600.44;5022137;28;48439;-77
2021/11/28 03:35:50;;;;;;;;;0.00;0.00;;;;;7.52;71.19;99611.84;5028133;28;52989;-80
2021/11/28 03:38:15;;;;;;;;;0.00;0.00;;;;;7.55;71.12;99611.81;5015835;28;64222;-79
2021/11/28 03:40:40;;;;;;;;;0.00;0.00;;;;;7.57;71.09;99619.72;5015941;28;66821;-76
2021/11/28 03:43:06;;;;;;;;;0.00;0.00;;;;;7.54;71.13;99612.69;5016194;28;45370;-78
2021/11/28 03:45:31;;;;;;;;;0.00;0.00;;;;;7.61;70.80;99617.09;5015102;28;56772;-76
2021/11/28 03:47:57;;;;;;;;;1.00;0.00;;;;;7.65;71.05;99625.00;5016834;28;46268;-77
2021/11/28 03:50:22;;;;;;;;;0.67;0.00;;;;;7.65;71.40;99617.13;5025124;28;56908;-79
2021/11/28 03:52:47;;;;;;;;;0.00;0.00;;;;;7.66;70.86;99626.75;5035454;28;53701;-76
2021/11/28 03:55:15;;;;;;;;;0.00;0.00;;;;;7.60;70.79;99619.72;5046794;28;45603;-76
2021/11/28 03:57:40;;;;;;;;;0.50;0.00;;;;;7.58;70.93;99624.97;5028721;28;46062;-76
2021/11/28 04:00:08;;;;;;;;;1.33;0.00;;;;;7.53;70.80;99616.22;5043448;28;45538;-78
2021/11/28 04:02:33;;;;;;;;;2.00;0.50;;;;;7.51;71.06;99625.84;5038655;28;45574;-77
2021/11/28 04:04:59;;;;;;;;;0.00;0.00;;;;;7.54;70.56;99630.22;5048792;28;45491;-76
2021/11/28 04:07:24;;;;;;;;;0.00;0.00;;;;;7.48;70.38;99632.81;5034691;28;64184;-76
2021/11/28 04:09:49;;;;;;;;;0.00;0.00;;;;;7.50;70.60;99629.31;5041715;28;62125;-79
2021/11/28 04:12:15;;;;;;;;;1.00;0.00;;;;;7.50;70.41;99631.06;5023319;28;45314;-76
2021/11/28 04:14:40;;;;;;;;;0.00;0.00;;;;;7.42;70.83;99622.28;5017932;28;60149;-78
2021/11/28 04:17:05;;;;;;;;;1.25;0.00;;;;;7.47;70.77;99629.31;5037837;28;46407;-80
2021/11/28 04:19:31;;;;;;;;;1.00;0.75;;;;;7.42;70.81;99627.53;5042168;28;54996;-79
2021/11/28 04:21:56;;;;;;;;;1.00;0.00;;;;;7.39;70.81;99633.66;5045347;28;49450;-76
2021/11/28 04:24:22;;;;;;;;;0.00;0.00;;;;;7.37;70.87;99627.53;5050352;28;45477;-78
2021/11/28 04:26:47;;;;;;;;;0.00;0.00;;;;;7.38;70.85;99631.03;5051510;28;46312;-76
2021/11/28 04:29:13;;;;;;;;;2.25;0.00;;;;;7.38;70.94;99626.66;5038023;28;62172;-77
2021/11/28 04:31:39;;;;;;;;;3.00;0.00;;;;;7.39;71.27;99628.41;5038881;28;45544;-76
2021/11/28 04:34:04;;;;;;;;;3.50;1.00;;;;;7.38;71.42;99625.78;5028201;28;45281;-76
2021/11/28 04:36:29;;;;;;;;;0.75;0.75;;;;;7.40;71.30;99631.91;5009284;28;62113;-79
2021/11/28 04:38:55;;;;;;;;;1.00;1.00;;;;;7.42;71.44;99636.31;5038905;28;45435;-79
2021/11/28 04:41:20;;;;;;;;;6.00;5.00;;;;;7.39;71.52;99623.13;5021042;28;56155;-75
2021/11/28 04:43:46;;;;;;;;;5.00;2.75;;;;;7.46;71.58;99639.81;5048647;28;62435;-78
2021/11/28 04:46:11;;;;;;;;;1.00;1.00;;;;;7.48;71.41;99644.19;5038034;28;62770;-76
2021/11/28 04:48:42;;;;;;;;;0.00;0.00;;;;;7.51;71.42;99644.22;5038225;28;66386;-77
2021/11/28 04:51:07;;;;;;;;;0.00;0.00;;;;;7.50;71.14;99645.06;5021284;28;45419;-76
2021/11/28 04:53:33;;;;;;;;;0.67;0.00;;;;;7.44;71.21;99644.19;5020715;28;56282;-76
2021/11/28 04:55:58;;;;;;;;;0.33;0.33;;;;;7.45;71.31;99640.66;5040050;28;60297;-76
2021/11/28 04:58:24;;;;;;;;;3.00;0.00;;;;;7.46;71.09;99643.31;5045148;28;50592;-77
2021/11/28 05:00:49;;;;;;;;;0.00;0.00;;;;;7.46;71.26;99655.59;5021554;28;45563;-76
2021/11/28 05:03:15;;;;;;;;;0.00;0.00;;;;;7.46;71.14;99645.09;5021120;28;45927;-76
2021/11/28 05:05:40;;;;;;;;;0.00;0.00;;;;;7.41;71.38;99634.56;5042395;28;63025;-78
2021/11/28 05:08:05;;;;;;;;;0.33;0.00;;;;;7.49;71.22;99652.94;5049230;28;65359;-77
2021/11/28 05:10:31;;;;;;;;;1.00;0.00;;;;;7.51;70.95;99648.56;5040886;28;52686;-76
2021/11/28 05:12:56;;;;;;;;;0.67;0.00;;;;;7.45;71.05;99652.06;5038664;28;45444;-79
2021/11/28 05:15:22;;;;;;;;;1.00;0.00;;;;;7.46;71.03;99655.59;5020692;28;45602;-78
2021/11/28 05:17:47;;;;;;;;;0.00;0.00;;;;;7.43;70.87;99659.06;5038888;28;45251;-76
2021/11/28 05:20:12;;;;;;;;;1.00;0.00;;;;;7.41;71.04;99647.69;5027058;28;51458;-76
2021/11/28 05:22:38;;;;;;;;;3.00;0.00;;;;;7.44;70.97;99652.06;5034460;28;45677;-76
2021/11/28 05:25:05;;;;;;;;;1.00;0.00;;;;;7.43;70.90;99655.56;5021776;28;48715;-78
2021/11/28 05:27:30;;;;;;;;;2.33;0.00;;;;;7.46;71.36;99642.47;5037808;28;45351;-76
2021/11/28 05:29:55;;;;;;;;;0.00;0.00;;;;;7.46;71.14;99658.22;5038193;28;45431;-75
2021/11/28 05:32:21;;;;;;;;;5.00;1.00;;;;;7.47;71.17;99659.97;5053924;28;45436;-76
2021/11/28 05:34:46;;;;;;;;;0.00;0.00;;;;;7.48;71.34;99661.72;5034550;28;47523;-77
2021/11/28 05:37:13;;;;;;;;;0.00;0.00;;;;;7.45;71.29;99667.81;5042522;28;66310;-77
2021/11/28 05:39:39;;;;;;;;;1.33;0.00;;;;;7.49;71.55;99669.59;5023335;28;45439;-76
2021/11/28 05:42:04;;;;;;;;;3.67;0.33;;;;;7.50;71.60;99675.72;5020620;28;45767;-78
2021/11/28 05:44:29;;;;;;;;;1.25;0.00;;;;;7.45;71.64;99664.31;5037854;28;46997;-78
2021/11/28 05:46:55;;;;;;;;;0.50;0.00;;;;;7.45;71.66;99664.31;5020264;28;51862;-77
2021/11/28 05:49:20;;;;;;;;;2.00;1.00;;;;;7.43;71.92;99674.81;5037808;28;45155;-79
2021/11/28 05:51:46;;;;;;;;;1.67;0.00;;;;;7.35;72.05;99673.91;5019680;28;48843;-76
2021/11/28 05:54:11;;;;;;;;;1.50;0.00;;;;;7.39;71.99;99678.28;5040954;28;66119;-78
2021/11/28 05:56:36;;;;;;;;;1.33;0.00;;;;;7.33;72.02;99671.25;5054174;28;61666;-75
2021/11/28 05:59:02;;;;;;;;;5.00;1.00;;;;;7.33;72.10;99679.13;5042591;28;45630;-76
2021/11/28 06:01:27;;;;;;;;;0.00;0.00;;;;;7.35;72.51;99687.03;5019283;28;57506;-77
2021/11/28 06:03:53;;;;;;;;;0.00;0.00;;;;;7.31;72.79;99688.75;5037317;28;45328;-76
2021/11/28 06:06:18;;;;;;;;;2.00;0.00;;;;;7.35;73.03;99689.66;5012999;28;45334;-75
2021/11/28 06:08:44;;;;;;;;;3.00;0.00;;;;;7.29;73.05;99679.09;5037531;28;45253;-75
2021/11/28 06:11:09;;;;;;;;;0.00;0.00;;;;;7.29;72.97;99692.22;5019997;28;45578;-76
2021/11/28 06:13:34;;;;;;;;;1.33;1.00;;;;;7.26;73.34;99686.97;5019824;28;68473;-77
2021/11/28 06:16:00;;;;;;;;;2.33;0.00;;;;;7.26;73.34;99694.84;5019931;28;45346;-75
2021/11/28 06:18:25;;;;;;;;;0.33;0.00;;;;;7.27;73.27;99700.09;5037282;28;60046;-79
2021/11/28 06:20:51;;;;;;;;;2.00;0.33;;;;;7.25;73.48;99712.38;5038060;28;45627;-77
2021/11/28 06:23:16;;;;;;;;;1.33;0.67;;;;;7.24;73.47;99702.69;5030139;28;65082;-76
2021/11/28 06:25:42;;;;;;;;;1.33;0.33;;;;;7.24;73.45;99710.56;5027460;28;65557;-75
2021/11/28 06:28:07;;;;;;;;;1.33;0.67;;;;;7.26;73.86;99707.97;5025672;28;45465;-77
2021/11/28 06:30:33;;;;;;;;;3.00;0.00;;;;;7.28;73.99;99717.63;5020017;28;45283;-77
2021/11/28 06:32:58;;;;;;;;;0.00;0.00;;;;;7.30;73.32;99713.28;5036912;28;45720;-76
2021/11/28 06:35:24;;;;;;;;;0.67;0.67;;;;;7.32;73.04;99718.53;5022380;28;45478;-76
2021/11/28 06:37:49;;;;;;;;;1.00;1.00;;;;;7.34;72.74;99712.41;5027957;28;45256;-78
2021/11/28 06:40:14;;;;;;;;;2.00;0.00;;;;;7.30;72.80;99718.53;5026880;28;49632;-76
2021/11/28 06:42:40;;;;;;;;;1.00;1.00;;;;;7.32;72.83;99723.78;5043523;28;45463;-75
2021/11/28 06:45:06;;;;;;;;;0.00;0.00;;;;;7.30;72.87;99707.16;5040551;28;60287;-75
2021/11/28 06:47:31;;;;;;;;;0.00;0.00;;;;;7.33;72.75;99722.91;5037414;28;45327;-76
2021/11/28 06:49:56;;;;;;;;;0.00;0.00;;;;;7.36;72.76;99722.94;5036102;28;59526;-76
2021/11/28 06:52:22;;;;;;;;;1.33;0.00;;;;;7.35;72.31;99722.06;5034925;28;65025;-76
2021/11/28 06:54:47;;;;;;;;;0.33;0.00;;;;;7.32;72.14;99724.66;5020365;28;59648;-79
2021/11/28 06:57:13;;;;;;;;;2.00;0.00;;;;;7.31;72.11;99725.53;5017681;28;45346;-77
2021/11/28 06:59:38;;;;;;;;;0.00;0.00;;;;;7.29;72.45;99727.25;5017167;28;59804;-77
2021/11/28 07:02:03;;;;;;;;;0.00;0.00;;;;;7.28;72.34;99737.75;5018434;28;68934;-79
2021/11/28 07:04:29;;;;;;;;;0.50;0.50;;;;;7.29;72.18;99737.75;5022608;28;45312;-76
2021/11/28 07:06:54;;;;;;;;;7.00;1.00;;;;;7.25;71.97;99732.50;5031763;28;58336;-79
2021/11/28 07:09:19;;;;;;;;;1.00;0.00;;;;;7.27;71.93;99757.88;5030176;28;55062;-76
2021/11/28 07:11:45;;;;;;;;;0.00;0.00;;;;;7.26;71.97;99745.63;5016567;28;47310;-75
2021/11/28 07:14:10;;;;;;;;;0.00;0.00;;;;;7.30;71.68;99762.28;5015932;28;60367;-76
2021/11/28 07:16:36;;;;;;;;;1.00;0.00;;;;;7.32;71.68;99764.03;4999542;28;45599;-77
2021/11/28 07:19:01;;;;;;;;;1.75;0.00;;;;;7.33;71.29;99765.78;4999899;28;45424;-75
2021/11/28 07:21:26;;;;;;;;;1.33;0.00;;;;;7.35;71.36;99768.44;5000981;28;47686;-76
2021/11/28 07:23:52;;;;;;;;;0.00;0.00;;;;;7.34;71.68;99770.16;5016820;28;45360;-77
2021/11/28 07:26:18;;;;;;;;;1.00;1.00;;;;;7.33;71.60;99762.28;5015982;28;58185;-76
2021/11/28 07:28:44;;;;;;;;;0.00;0.00;;;;;7.38;71.48;99772.81;4999233;28;45384;-76
2021/11/28 07:31:10;;;;;;;;;2.00;0.00;;;;;7.32;71.50;99764.03;4998530;28;47454;-77
2021/11/28 07:33:36;;;;;;;;;1.33;1.00;;;;;7.44;71.12;99789.50;5016013;28;45576;-76
2021/11/28 07:36:05;;;;;;;;;1.00;1.00;;;;;7.46;71.27;99810.53;5018971;28;45285;-76
2021/11/28 07:38:31;;;;;;;;;0.33;0.33;;;;;7.46;70.50;99807.91;5009372;28;45640;-76
2021/11/28 07:40:56;;;;;;;;;2.75;1.00;;;;;7.45;70.82;99799.13;4988789;28;59939;-76
2021/11/28 07:43:22;;;;;;;;;0.00;0.00;;;;;7.47;70.50;99807.91;5021209;28;45486;-77
2021/11/28 07:45:47;;;;;;;;;0.00;0.00;;;;;7.47;70.58;99807.91;5017687;28;45265;-77
2021/11/28 07:48:13;;;;;;;;;2.00;1.00;;;;;7.47;70.33;99815.78;5016014;28;50894;-76
2021/11/28 07:50:38;;;;;;;;;1.75;1.50;;;;;7.51;70.76;99811.41;5017090;28;63248;-78
2021/11/28 07:53:03;;;;;;;;;2.25;1.50;;;;;7.54;70.55;99819.34;5024651;28;45485;-76
2021/11/28 07:55:29;;;;;;;;;4.00;0.00;;;;;7.53;70.48;99813.19;5035040;28;62393;-77
2021/11/28 07:57:54;;;;;;;;;1.00;1.00;;;;;7.59;70.26;99826.38;5021014;28;52699;-77
2021/11/28 08:00:20;;;;;;;;;2.00;1.00;;;;;7.61;70.02;99831.63;5022692;28;45924;-78
2021/11/28 08:02:45;;;;;;;;;3.50;1.00;;;;;7.56;69.92;99828.09;5038718;28;45374;-76
2021/11/28 08:05:10;;;;;;;;;3.00;1.33;;;;;7.58;70.04;99834.25;5037165;28;45398;-76
2021/11/28 08:07:36;;;;;;;;;6.33;0.00;;;;;7.56;69.60;99843.84;5039784;28;45508;-78
2021/11/28 08:10:02;;;;;;;;;0.75;0.75;;;;;7.55;69.75;99845.59;5021486;28;55520;-79
2021/11/28 08:12:27;;;;;;;;;0.00;0.00;;;;;7.53;69.79;99844.72;5041102;28;45621;-77
2021/11/28 08:14:53;;;;;;;;;2.00;1.00;;;;;7.52;69.82;99844.72;5039177;28;45829;-77
2021/11/28 08:17:21;;;;;;;;;1.00;1.00;;;;;7.59;70.07;99847.38;5039506;28;45522;-77
2021/11/28 08:19:47;;;;;;;;;5.25;1.25;;;;;7.63;69.85;99842.16;5032094;28;45470;-80
2021/11/28 08:22:12;;;;;;;;;1.75;1.75;;;;;7.72;70.03;99856.22;5021257;28;45355;-79
2021/11/28 08:24:37;;;;;;;;;1.00;0.75;;;;;7.78;69.70;99853.66;5039094;28;45681;-79
2021/11/28 08:27:03;;;;;;;;;2.00;1.00;;;;;7.80;69.61;99853.66;5038554;28;57509;-78
2021/11/28 08:29:28;;;;;;;;;4.50;1.50;;;;;7.81;69.70;99858.91;5025865;28;46915;-79
2021/11/28 08:31:54;;;;;;;;;5.00;2.00;;;;;7.78;69.36;99858.91;5027340;28;45545;-79
2021/11/28 08:34:20;;;;;;;;;3.00;3.00;;;;;7.79;69.60;99858.03;5040995;28;45393;-79
2021/11/28 08:36:45;;;;;;;;;4.50;2.00;;;;;7.86;69.42;99858.97;5035741;28;45617;-79
2021/11/28 08:39:11;;;;;;;;;2.25;2.25;;;;;7.86;69.00;99864.22;5039424;28;46141;-77
2021/11/28 08:41:37;;;;;;;;;2.75;2.00;;;;;7.85;69.01;99865.09;5040132;28;45472;-76
2021/11/28 08:44:03;;;;;;;;;1.00;1.00;;;;;7.82;69.41;99863.31;5005719;28;45464;-78
2021/11/28 08:46:28;;;;;;;;;3.25;2.00;;;;;7.87;69.13;99866.84;5038572;28;45200;-77
2021/11/28 08:48:54;;;;;;;;;5.00;2.00;;;;;7.91;69.02;99867.75;5038180;28;46349;-81
2021/11/28 08:53:55;;;;;;;;;8.25;3.00;;;;;7.95;69.10;99869.53;4938361;22;46452;-77
2021/11/28 08:56:21;;;;;;;;;6.00;2.50;;;;;8.01;68.67;99882.72;5017333;28;45501;-78
2021/11/28 08:58:46;;;;;;;;;3.00;2.00;;;;;8.04;68.71;99879.19;5017882;28;46637;-82
2021/11/28 09:01:11;;;;;;;;;1.50;1.00;;;;;8.07;68.68;99873.97;5035034;28;59187;-79
2021/11/28 09:03:37;;;;;;;;;1.75;1.75;;;;;8.07;68.60;99884.50;5016731;28;59930;-77
2021/11/28 09:06:02;;;;;;;;;6.00;6.00;;;;;8.07;68.59;99885.38;5035143;28;59540;-74
2021/11/28 09:08:28;;;;;;;;;3.00;1.00;;;;;8.05;68.37;99892.38;5036050;28;45964;-76
2021/11/28 09:10:53;;;;;;;;;3.00;2.00;;;;;8.01;68.53;99890.59;5017172;28;62580;-78
2021/11/28 09:13:20;;;;;;;;;7.00;6.00;;;;;7.96;68.84;99894.94;5035414;28;60667;-78
2021/11/28 09:15:45;;;;;;;;;3.50;2.00;;;;;7.97;68.98;99890.56;5018615;28;45402;-77
2021/11/28 09:18:15;;;;;;;;;5.00;3.00;;;;;7.93;68.67;99896.66;5036880;28;45464;-78
2021/11/28 09:20:44;;;;;;;;;6.50;2.25;;;;;7.95;69.06;99902.81;5031646;28;45981;-78
2021/11/28 09:25:35;;;;;;;;;4.50;3.00;;;;;7.91;68.66;99915.06;5017895;28;45489;-77
2021/11/28 09:28:01;;;;;;;;;7.50;3.00;;;;;7.89;68.39;99919.44;5017032;28;45513;-79
2021/11/28 09:30:26;;;;;;;;;3.67;2.00;;;;;7.84;68.81;99915.91;5034267;28;45460;-81
2021/11/28 09:32:52;;;;;;;;;2.75;2.75;;;;;7.77;68.92;99903.56;5033091;28;45606;-78
2021/11/28 09:35:18;;;;;;;;;5.50;2.75;;;;;7.88;68.54;99926.44;5017893;28;45563;-80
2021/11/28 09:37:44;;;;;;;;;3.50;2.75;;;;;7.84;68.81;99924.66;5034481;28;45511;-78
2021/11/28 09:40:09;;;;;;;;;5.00;2.00;;;;;7.84;68.58;99931.66;5036230;28;62704;-78
2021/11/28 09:43:06;;;;;;;;;5.75;2.25;;;;;7.86;68.80;99932.53;5035588;28;45508;-79
2021/11/28 09:45:32;;;;;;;;;6.00;2.00;;;;;7.86;68.42;99930.78;5004499;28;45471;-77
2021/11/28 09:47:58;;;;;;;;;2.00;2.00;;;;;7.87;68.40;99932.53;5030199;28;47529;-76
2021/11/28 09:50:28;;;;;;;;;6.50;2.00;;;;;7.90;68.25;99931.69;5037343;28;45453;-76
2021/11/28 09:52:58;;;;;;;;;3.50;1.00;;;;;7.86;67.88;99937.78;5030994;28;45295;-76
2021/11/28 09:55:27;;;;;;;;;4.00;3.00;;;;;7.81;68.10;99940.38;4994039;28;45502;-77
2021/11/28 09:57:52;;;;;;;;;5.00;3.00;;;;;7.85;67.91;99944.81;4999341;28;47198;-75
2021/11/28 10:00:20;;;;;;;;;5.00;2.00;;;;;7.83;68.03;99953.56;5005005;28;45564;-77
2021/11/28 10:02:46;;;;;;;;;7.75;2.00;;;;;7.73;67.86;99942.09;4999642;28;45513;-74
2021/11/28 10:05:13;;;;;;;;;1.25;1.25;;;;;7.74;68.08;99953.47;4997759;28;55999;-76
2021/11/28 10:07:40;;;;;;;;;6.25;3.00;;;;;7.74;68.22;99962.25;5017008;28;46627;-75
2021/11/28 10:10:06;;;;;;;;;3.00;3.00;;;;;7.76;68.35;99970.13;5016421;28;46717;-76
2021/11/28 10:12:33;;;;;;;;;7.00;4.50;;;;;7.76;68.61;99965.75;4998945;28;45587;-77
2021/11/28 10:15:07;;;;;;;;;6.75;4.00;;;;;7.73;68.70;99957.84;5015790;28;45232;-75
2021/11/28 10:17:33;;;;;;;;;9.25;6.50;;;;;7.76;68.62;99963.13;5016598;28;47551;-77
2021/11/28 10:20:00;;;;;;;;;6.75;5.00;;;;;7.80;68.54;99966.66;4995326;28;45591;-77
2021/11/28 10:22:25;;;;;;;;;2.50;2.50;;;;;7.81;68.91;99966.66;5015483;28;45489;-76
2021/11/28 10:25:02;;;;;;;;;8.00;6.00;;;;;7.86;68.97;99964.06;5017061;28;45674;-75
2021/11/28 10:27:35;;;;;;;;;4.25;4.00;;;;;7.92;68.80;99955.38;5016266;28;46699;-77
2021/11/28 10:30:01;;;;;;;;;6.00;2.50;;;;;7.94;68.15;99964.16;5017014;28;45332;-76
2021/11/28 10:32:29;;;;;;;;;2.50;1.25;;;;;7.87;67.78;99956.19;5016178;28;59554;-76
2021/11/28 10:34:54;;;;;;;;;5.25;4.00;;;;;7.89;68.20;99956.22;5016464;28;58865;-77
2021/11/28 10:37:24;;;;;;;;;6.50;5.00;;;;;7.84;68.00;99945.69;5016723;28;46736;-75
2021/11/28 10:39:55;;;;;;;;;6.75;3.00;;;;;7.83;67.88;99945.69;5009782;28;45425;-75
2021/11/28 10:42:24;;;;;;;;;4.00;2.25;;;;;7.85;67.88;99963.19;5017056;28;45296;-75
2021/11/28 10:45:16;;;;;;;;;4.50;2.00;;;;;7.81;67.59;99953.53;5011252;28;45527;-76
2021/11/28 10:48:15;;;;;;;;;2.50;2.50;;;;;7.81;67.98;99948.28;5134648;27;45451;-76
2021/11/28 10:50:41;;;;;;;;;2.00;2.00;;;;;7.86;67.81;99948.31;5112462;27;45479;-76
2021/11/28 10:53:23;;;;;;;;;4.75;1.50;;;;;7.92;67.60;99943.09;5104990;27;45476;-75
2021/11/28 10:55:50;;;;;;;;;5.00;2.50;;;;;8.02;67.70;99949.31;5119042;27;45592;-78
2021/11/28 10:58:22;;;;;;;;;6.00;3.00;;;;;8.05;67.66;99950.22;5113056;27;45422;-75
2021/11/28 11:00:50;;;;;;;;;7.00;5.00;;;;;8.08;67.23;99952.84;5112578;27;45460;-76
2021/11/28 11:03:20;;;;;;;;;6.00;4.00;;;;;8.14;67.35;99946.75;5113702;27;45344;-76
2021/11/28 11:05:46;;;;;;;;;7.75;4.00;;;;;8.18;67.35;99934.50;5114217;27;45395;-77
2021/11/28 11:08:15;;;;;;;;;4.50;3.00;;;;;8.20;67.36;99946.78;5113847;27;47307;-76
2021/11/28 11:10:47;;;;;;;;;13.25;7.50;;;;;8.24;67.19;99945.06;5113707;27;45695;-76
2021/11/28 11:13:14;;;;;;;;;2.75;2.25;;;;;8.25;66.45;99944.19;5112036;27;45356;-79
2021/11/28 11:15:45;;;;;;;;;3.00;3.00;;;;;8.24;66.89;99942.44;5111714;27;45694;-76
2021/11/28 11:18:15;;;;;;;;;3.50;2.00;;;;;8.25;65.70;99949.44;5112901;27;46408;-77
2021/11/28 11:20:47;;;;;;;;;5.00;2.75;;;;;8.24;66.39;99955.59;5111948;27;45473;-77
2021/11/28 11:23:35;;;;;;;;;1.00;1.00;;;;;8.23;65.75;99948.56;5113736;27;45312;-78
2021/11/28 11:26:19;;;;;;;;;6.50;2.00;;;;;8.25;65.44;99957.34;5112605;27;45297;-78
2021/11/28 11:29:05;;;;;;;;;6.25;2.00;;;;;8.28;65.98;99947.72;5112037;27;45637;-77
2021/11/28 11:31:30;;;;;;;;;3.50;2.00;;;;;8.32;65.48;99949.50;5112874;27;45515;-77
2021/11/28 11:34:18;;;;;;;;;5.00;2.75;;;;;8.27;64.27;99959.13;5112953;27;45305;-77
2021/11/28 11:37:20;;;;;;;;;4.50;2.50;;;;;8.21;64.79;99952.94;5110379;27;45586;-78
2021/11/28 11:39:49;;;;;;;;;4.00;2.00;;;;;8.19;64.92;99958.19;5066717;28;46965;-79
2021/11/28 11:42:21;;;;;;;;;3.00;3.00;;;;;8.19;64.98;99949.41;5105570;27;45601;-78
2021/11/28 11:44:50;;;;;;;;;1.75;0.00;;;;;8.20;64.94;99962.56;5109490;27;45507;-76
2021/11/28 11:47:17;;;;;;;;;6.75;3.00;;;;;8.25;64.54;99957.34;5111657;27;45363;-77
2021/11/28 11:49:42;;;;;;;;;8.50;6.50;;;;;8.28;64.47;99960.88;5112887;27;45838;-78